createdAt,value
2023-03-17T00:01:54.676Z,102041.09
2023-03-17T00:04:24.290Z,102037.53
2023-03-17T00:06:51.785Z,102043.56
2023-03-17T00:09:19.379Z,102043.56
2023-03-17T00:11:46.489Z,102040.88
2023-03-17T00:14:13.620Z,102050.34
2023-03-17T00:16:43.810Z,102047.53
2023-03-17T00:19:32.246Z,102043.97
2023-03-17T00:22:00.964Z,102043.09
2023-03-17T00:24:28.511Z,102037.81
2023-03-17T00:26:55.390Z,102044.78
2023-03-17T00:29:22.106Z,102043.03
2023-03-17T00:31:50.762Z,102040.41
2023-03-17T00:34:19.262Z,102042.13
2023-03-17T00:36:48.449Z,102038.56
2023-03-17T00:41:42.744Z,102036.75
2023-03-17T00:44:09.893Z,102035.00
2023-03-17T00:46:38.251Z,102028.03
2023-03-17T00:51:42.813Z,102021.97
2023-03-17T00:54:11.013Z,102025.47
2023-03-17T00:56:39.232Z,102020.22
2023-03-17T00:59:19.290Z,102024.50
2023-03-17T01:01:46.944Z,102021.88
2023-03-17T01:04:14.302Z,102016.75
2023-03-17T01:06:41.024Z,102014.16
2023-03-17T01:09:08.309Z,102013.38
2023-03-17T01:11:36.620Z,102012.50
2023-03-17T01:14:03.533Z,102018.66
2023-03-17T01:16:30.262Z,102006.44
2023-03-17T01:18:56.974Z,102005.63
2023-03-17T01:21:23.841Z,102003.97
2023-03-17T01:23:50.474Z,101999.66
2023-03-17T01:26:17.461Z,101992.72
2023-03-17T01:28:44.114Z,101992.78
2023-03-17T01:31:10.860Z,101992.00
2023-03-17T01:33:37.494Z,101991.25
2023-03-17T01:36:04.388Z,101980.06
2023-03-17T01:38:31.318Z,101978.41
2023-03-17T01:40:58.230Z,101977.56
2023-03-17T01:43:30.817Z,101976.78
2023-03-17T01:46:09.832Z,101976.00
2023-03-17T01:48:46.978Z,101974.34
2023-03-17T01:51:23.620Z,101966.53
2023-03-17T01:53:52.894Z,101963.06
2023-03-17T01:56:20.344Z,101955.22
2023-03-17T01:58:50.646Z,101960.44
2023-03-17T02:01:17.944Z,101952.59
2023-03-17T02:03:45.233Z,101956.91
2023-03-17T02:06:13.033Z,101949.06
2023-03-17T02:08:39.695Z,101946.44
2023-03-17T02:11:07.052Z,101946.47
2023-03-17T02:13:35.022Z,101938.63
2023-03-17T02:16:01.777Z,101930.81
2023-03-17T02:18:28.421Z,101935.22
2023-03-17T02:20:58.699Z,101934.34
2023-03-17T02:23:25.816Z,101925.66
2023-03-17T02:25:54.148Z,101932.69
2023-03-17T02:28:26.065Z,101920.56
2023-03-17T02:30:52.861Z,101915.41
2023-03-17T02:33:19.610Z,101917.22
2023-03-17T02:35:47.868Z,101917.25
2023-03-17T02:38:14.564Z,101912.94
2023-03-17T02:40:41.189Z,101912.94
2023-03-17T02:43:07.941Z,101910.34
2023-03-17T02:45:34.589Z,101914.66
2023-03-17T02:48:01.490Z,101916.38
2023-03-17T02:50:29.581Z,101911.13
2023-03-17T02:52:56.320Z,101912.00
2023-03-17T02:55:22.959Z,101923.31
2023-03-17T02:57:49.644Z,101914.56
2023-03-17T03:00:16.604Z,101901.53
2023-03-17T03:02:43.356Z,101912.91
2023-03-17T03:05:10.842Z,101910.19
2023-03-17T03:07:37.544Z,101912.81
2023-03-17T03:10:05.825Z,101905.00
2023-03-17T03:12:33.081Z,101910.19
2023-03-17T03:14:59.690Z,101904.09
2023-03-17T03:17:26.389Z,101908.44
2023-03-17T03:19:53.009Z,101905.88
2023-03-17T03:22:19.645Z,101904.91
2023-03-17T03:24:46.242Z,101909.25
2023-03-17T03:27:12.878Z,101897.00
2023-03-17T03:29:39.548Z,101902.19
2023-03-17T03:32:06.649Z,101896.91
2023-03-17T03:34:33.299Z,101899.53
2023-03-17T03:37:00.035Z,101888.22
2023-03-17T03:39:26.695Z,101897.84
2023-03-17T03:41:57.383Z,101891.78
2023-03-17T03:44:24.566Z,101890.91
2023-03-17T03:46:51.896Z,101887.41
2023-03-17T03:49:18.746Z,101887.34
2023-03-17T03:51:45.361Z,101886.47
2023-03-17T03:54:11.997Z,101880.44
2023-03-17T03:56:38.624Z,101880.44
2023-03-17T03:59:05.296Z,101876.09
2023-03-17T04:01:31.946Z,101869.16
2023-03-17T04:03:58.560Z,101876.13
2023-03-17T04:06:25.206Z,101882.19
2023-03-17T04:08:52.317Z,101876.13
2023-03-17T04:11:18.962Z,101872.66
2023-03-17T04:13:45.881Z,101876.09
2023-03-17T04:16:12.550Z,101878.75
2023-03-17T04:18:39.285Z,101871.78
2023-03-17T04:21:07.130Z,101866.56
2023-03-17T04:23:34.136Z,101863.94
2023-03-17T04:26:00.991Z,101863.09
2023-03-17T04:28:27.764Z,101853.56
2023-03-17T04:30:54.446Z,101844.84
2023-03-17T04:33:21.512Z,101842.22
2023-03-17T04:35:48.358Z,101837.00
2023-03-17T04:38:15.016Z,101830.97
2023-03-17T04:40:41.733Z,101826.66
2023-03-17T04:43:10.311Z,101820.63
2023-03-17T04:45:37.534Z,101822.31
2023-03-17T04:48:04.697Z,101820.66
2023-03-17T04:50:33.397Z,101809.41
2023-03-17T04:53:00.298Z,101816.38
2023-03-17T04:55:27.648Z,101817.31
2023-03-17T04:57:54.328Z,101807.78
2023-03-17T05:00:21.415Z,101814.81
2023-03-17T05:02:48.039Z,101803.59
2023-03-17T05:05:14.636Z,101813.22
2023-03-17T05:07:41.774Z,101797.56
2023-03-17T05:10:09.456Z,101794.97
2023-03-17T05:12:36.173Z,101795.06
2023-03-17T05:15:03.165Z,101794.25
2023-03-17T05:17:29.838Z,101789.09
2023-03-17T05:19:56.488Z,101796.94
2023-03-17T05:22:23.107Z,101797.88
2023-03-17T05:24:49.765Z,101793.53
2023-03-17T05:27:16.399Z,101784.91
2023-03-17T05:29:43.075Z,101792.75
2023-03-17T05:32:09.802Z,101794.56
2023-03-17T05:34:36.525Z,101782.38
2023-03-17T05:37:03.450Z,101781.59
2023-03-17T05:39:30.244Z,101788.59
2023-03-17T05:41:57.300Z,101785.16
2023-03-17T05:44:24.051Z,101780.91
2023-03-17T05:46:51.132Z,101776.66
2023-03-17T05:49:19.174Z,101778.47
2023-03-17T05:51:45.791Z,101783.78
2023-03-17T05:54:12.973Z,101779.53
2023-03-17T05:56:40.378Z,101784.81
2023-03-17T05:59:06.988Z,101797.09
2023-03-17T06:01:33.597Z,101791.09
2023-03-17T06:04:01.772Z,101785.94
2023-03-17T06:06:28.862Z,101774.69
2023-03-17T06:08:55.618Z,101772.19
2023-03-17T06:11:23.611Z,101784.47
2023-03-17T06:13:50.428Z,101787.13
2023-03-17T06:16:17.203Z,101785.47
2023-03-17T06:18:45.404Z,101785.53
2023-03-17T06:21:14.909Z,101774.28
2023-03-17T06:23:41.525Z,101790.03
2023-03-17T06:26:08.755Z,101779.66
2023-03-17T06:28:35.842Z,101787.59
2023-03-17T06:31:04.174Z,101799.81
2023-03-17T06:33:32.724Z,101785.13
2023-03-17T06:36:00.663Z,101791.28
2023-03-17T06:38:27.918Z,101795.69
2023-03-17T06:40:54.552Z,101801.00
2023-03-17T06:43:22.256Z,101800.22
2023-03-17T06:45:48.863Z,101797.69
2023-03-17T06:48:15.500Z,101796.81
2023-03-17T06:50:42.130Z,101789.91
2023-03-17T06:53:08.875Z,101797.81
2023-03-17T06:55:35.750Z,101790.88
2023-03-17T06:58:03.207Z,101799.69
2023-03-17T07:00:30.452Z,101795.38
2023-03-17T07:02:57.796Z,101788.41
2023-03-17T07:05:24.493Z,101779.78
2023-03-17T07:07:51.152Z,101774.63
2023-03-17T07:10:18.217Z,101765.06
2023-03-17T07:12:45.285Z,101769.50
2023-03-17T07:15:15.355Z,101767.81
2023-03-17T07:17:42.162Z,101769.56
2023-03-17T07:20:11.703Z,101789.72
2023-03-17T07:22:38.385Z,101794.97
2023-03-17T07:25:05.587Z,101792.38
2023-03-17T07:27:32.326Z,101797.69
2023-03-17T07:30:02.270Z,101796.88
2023-03-17T07:32:29.560Z,101801.28
2023-03-17T07:34:57.166Z,101800.47
2023-03-17T07:37:24.921Z,101797.88
2023-03-17T07:39:52.040Z,101797.94
2023-03-17T07:42:18.724Z,101798.00
2023-03-17T07:44:45.581Z,101788.44
2023-03-17T07:47:12.394Z,101777.16
2023-03-17T07:49:42.043Z,101781.56
2023-03-17T07:52:10.652Z,101785.09
2023-03-17T07:54:37.795Z,101784.28
2023-03-17T07:57:07.986Z,101789.56
2023-03-17T07:59:34.742Z,101781.72
2023-03-17T08:02:01.718Z,101784.38
2023-03-17T08:04:28.889Z,101791.44
2023-03-17T08:06:55.843Z,101778.41
2023-03-17T08:09:23.147Z,101754.91
2023-03-17T08:11:49.887Z,101778.56
2023-03-17T08:14:16.632Z,101763.81
2023-03-17T08:16:43.334Z,101765.63
2023-03-17T08:19:11.147Z,101763.06
2023-03-17T08:21:37.850Z,101768.38
2023-03-17T08:24:05.370Z,101740.47
2023-03-17T08:26:32.362Z,101751.91
2023-03-17T08:28:59.562Z,101735.31
2023-03-17T08:31:26.321Z,101733.59
2023-03-17T08:33:57.150Z,101730.97
2023-03-17T08:36:24.633Z,101728.38
2023-03-17T08:38:51.625Z,101730.16
2023-03-17T08:41:21.998Z,101721.44
2023-03-17T08:43:48.862Z,101733.69
2023-03-17T08:46:31.498Z,101736.31
2023-03-17T08:48:59.324Z,101734.59
2023-03-17T08:51:29.213Z,101732.81
2023-03-17T08:53:56.416Z,101737.22
2023-03-17T08:56:23.402Z,101737.22
2023-03-17T08:58:50.984Z,101741.59
2023-03-17T09:01:18.347Z,101735.47
2023-03-17T09:03:45.660Z,101741.59
2023-03-17T09:06:13.637Z,101718.91
2023-03-17T09:08:45.135Z,101729.38
2023-03-17T09:11:16.759Z,101727.66
2023-03-17T09:13:44.857Z,101727.56
2023-03-17T09:16:11.553Z,101724.09
2023-03-17T09:18:38.927Z,101716.19
2023-03-17T09:21:06.454Z,101715.34
2023-03-17T09:23:33.727Z,101728.44
2023-03-17T09:26:01.984Z,101717.97
2023-03-17T09:28:29.251Z,101717.09
2023-03-17T09:31:04.369Z,101709.25
2023-03-17T09:33:31.759Z,101698.78
2023-03-17T09:35:58.442Z,101692.72
2023-03-17T09:38:27.649Z,101697.97
2023-03-17T09:41:06.700Z,101687.50
2023-03-17T09:43:43.353Z,101699.84
2023-03-17T09:46:30.831Z,101690.25
2023-03-17T09:49:07.718Z,101694.66
2023-03-17T09:51:35.954Z,101695.56
2023-03-17T09:54:06.735Z,101680.81
2023-03-17T09:56:36.960Z,101672.16
2023-03-17T09:59:08.705Z,101667.00
2023-03-17T10:01:43.753Z,101661.81
2023-03-17T10:04:12.098Z,101659.22
2023-03-17T10:06:49.639Z,101650.47
2023-03-17T10:09:40.260Z,101658.38
2023-03-17T10:12:18.410Z,101647.03
2023-03-17T10:15:13.080Z,101647.06
2023-03-17T10:17:42.223Z,101647.13
2023-03-17T10:20:33.959Z,101645.38
2023-03-17T10:23:06.944Z,101651.53
2023-03-17T10:25:37.474Z,101641.03
2023-03-17T10:28:17.785Z,101641.91
2023-03-17T10:30:44.896Z,101637.50
2023-03-17T10:33:12.563Z,101632.19
2023-03-17T10:35:39.622Z,101633.91
2023-03-17T10:38:21.581Z,101623.38
2023-03-17T10:40:59.517Z,101638.25
2023-03-17T10:43:41.931Z,101623.34
2023-03-17T10:46:20.194Z,101623.34
2023-03-17T10:48:52.980Z,101626.84
2023-03-17T10:51:31.747Z,101617.22
2023-03-17T10:54:08.130Z,101618.09
2023-03-17T10:56:37.147Z,101628.59
2023-03-17T10:59:14.967Z,101632.13
2023-03-17T11:01:49.886Z,101619.84
2023-03-17T11:04:37.461Z,101610.22
2023-03-17T11:07:16.589Z,101615.44
2023-03-17T11:09:43.573Z,101595.31
2023-03-17T11:12:26.894Z,101610.16
2023-03-17T11:15:06.509Z,101586.56
2023-03-17T11:17:45.513Z,101599.66
2023-03-17T11:20:50.976Z,101593.50
2023-03-17T11:23:38.758Z,101598.75
2023-03-17T11:26:14.777Z,101591.78
2023-03-17T11:28:46.771Z,101571.63
2023-03-17T11:31:34.187Z,101582.97
2023-03-17T11:34:29.847Z,101583.00
2023-03-17T11:37:30.210Z,101570.78
2023-03-17T11:40:06.152Z,101563.78
2023-03-17T11:42:44.384Z,101561.16
2023-03-17T11:45:22.723Z,101547.16
2023-03-17T11:48:20.062Z,101534.03
2023-03-17T11:51:02.113Z,101527.91
2023-03-17T11:53:43.136Z,101530.53
2023-03-17T11:56:37.680Z,101532.28
2023-03-17T11:59:12.022Z,101507.81
2023-03-17T12:01:51.250Z,101496.44
2023-03-17T12:04:35.248Z,101479.78
2023-03-17T12:07:08.104Z,101478.03
2023-03-17T12:09:47.654Z,101471.91
2023-03-17T12:12:19.890Z,101457.06
2023-03-17T12:14:53.342Z,101451.78
2023-03-17T12:17:50.874Z,101463.16
2023-03-17T12:20:30.033Z,101439.53
2023-03-17T12:23:18.985Z,101436.06
2023-03-17T12:25:57.867Z,101429.94
2023-03-17T12:28:34.276Z,101435.19
2023-03-17T12:31:17.305Z,101423.81
2023-03-17T12:33:55.224Z,101428.19
2023-03-17T12:36:22.685Z,101427.31
2023-03-17T12:39:06.127Z,101404.56
2023-03-17T12:41:59.828Z,101422.94
2023-03-17T12:44:52.524Z,101410.69
2023-03-17T12:47:41.067Z,101393.16
2023-03-17T12:50:28.001Z,101392.31
2023-03-17T12:53:26.893Z,101377.44
2023-03-17T12:55:56.843Z,101384.41
2023-03-17T12:58:35.940Z,101377.44
2023-03-17T13:01:17.581Z,101373.06
2023-03-17T13:04:16.901Z,101364.31
2023-03-17T13:06:53.321Z,101372.16
2023-03-17T13:09:32.048Z,101373.91
2023-03-17T13:12:03.403Z,101383.56
2023-03-17T13:14:47.789Z,101368.66
2023-03-17T13:17:20.415Z,101373.03
2023-03-17T13:20:10.391Z,101380.94
2023-03-17T13:22:38.837Z,101390.53
2023-03-17T13:25:27.540Z,101369.53
2023-03-17T13:27:54.366Z,101374.78
2023-03-17T13:30:25.845Z,101366.03
2023-03-17T13:33:10.511Z,101352.94
2023-03-17T13:35:45.465Z,101338.91
2023-03-17T13:38:28.764Z,101326.66
2023-03-17T13:41:07.130Z,101348.56
2023-03-17T13:43:36.594Z,101352.03
2023-03-17T13:46:41.796Z,101352.03
2023-03-17T13:49:21.449Z,101343.28
2023-03-17T13:52:01.662Z,101348.53
2023-03-17T13:54:28.365Z,101348.53
2023-03-17T13:56:59.367Z,101338.03
2023-03-17T13:59:48.104Z,101338.03
2023-03-17T14:02:21.527Z,101324.91
2023-03-17T14:04:58.809Z,101331.91
2023-03-17T14:07:37.240Z,101331.91
2023-03-17T14:10:05.497Z,101342.41
2023-03-17T14:12:58.129Z,101333.66
2023-03-17T14:15:48.235Z,101340.66
2023-03-17T14:18:21.322Z,101334.53
2023-03-17T14:20:56.285Z,101317.06
2023-03-17T14:23:24.134Z,101321.44
2023-03-17T14:25:51.162Z,101303.03
2023-03-17T14:28:26.441Z,101313.53
2023-03-17T14:31:01.949Z,101307.41
2023-03-17T14:33:31.097Z,101296.03
2023-03-17T14:36:00.915Z,101304.81
2023-03-17T14:38:33.117Z,101302.16
2023-03-17T14:41:05.699Z,101288.16
2023-03-17T14:43:34.581Z,101287.31
2023-03-17T14:46:21.474Z,101289.91
2023-03-17T14:48:52.149Z,101283.81
2023-03-17T14:51:30.479Z,101282.94
2023-03-17T14:54:01.375Z,101276.81
2023-03-17T14:56:42.370Z,101264.56
2023-03-17T14:59:36.321Z,101252.34
2023-03-17T15:02:23.300Z,101240.94
2023-03-17T15:04:59.511Z,101251.44
2023-03-17T15:07:35.657Z,101237.44
2023-03-17T15:10:03.679Z,101227.84
2023-03-17T15:12:31.390Z,101234.81
2023-03-17T15:15:06.337Z,101237.47
2023-03-17T15:17:37.146Z,101238.31
2023-03-17T15:20:07.602Z,101240.09
2023-03-17T15:22:48.515Z,101226.97
2023-03-17T15:25:23.910Z,101227.81
2023-03-17T15:27:50.926Z,101233.09
2023-03-17T15:30:18.882Z,101231.31
2023-03-17T15:32:51.898Z,101226.94
2023-03-17T15:35:18.817Z,101236.56
2023-03-17T15:37:45.643Z,101229.59
2023-03-17T15:40:13.893Z,101232.22
2023-03-17T15:42:40.568Z,101226.97
2023-03-17T15:45:08.523Z,101224.34
2023-03-17T15:47:39.855Z,101220.84
2023-03-17T15:50:24.206Z,101206.00
2023-03-17T15:52:56.281Z,101193.75
2023-03-17T15:55:32.464Z,101177.13
2023-03-17T15:57:59.169Z,101191.13
2023-03-17T16:00:29.828Z,101179.75
2023-03-17T16:03:02.148Z,101169.28
2023-03-17T16:05:33.952Z,101176.28
2023-03-17T16:08:01.704Z,101158.75
2023-03-17T16:10:31.072Z,101173.63
2023-03-17T16:12:58.333Z,101170.13
2023-03-17T16:15:28.252Z,101185.00
2023-03-17T16:17:59.262Z,101175.38
2023-03-17T16:20:50.184Z,101185.88
2023-03-17T16:23:19.389Z,101190.25
2023-03-17T16:25:46.882Z,101184.13
2023-03-17T16:28:28.376Z,101161.38
2023-03-17T16:30:57.180Z,101151.78
2023-03-17T16:33:25.972Z,101150.91
2023-03-17T16:35:54.626Z,101177.13
2023-03-17T16:38:26.731Z,101178.00
2023-03-17T16:41:06.157Z,101180.63
2023-03-17T16:43:37.768Z,101176.25
2023-03-17T16:46:06.936Z,101167.53
2023-03-17T16:48:33.743Z,101157.91
2023-03-17T16:51:01.472Z,101150.03
2023-03-17T16:53:28.175Z,101153.53
2023-03-17T16:55:55.714Z,101156.16
2023-03-17T16:58:25.973Z,101148.28
2023-03-17T17:00:55.563Z,101148.28
2023-03-17T17:03:22.604Z,101140.41
2023-03-17T17:05:49.273Z,101133.44
2023-03-17T17:08:15.997Z,101140.44
2023-03-17T17:10:42.688Z,101136.06
2023-03-17T17:13:12.210Z,101133.44
2023-03-17T17:15:41.778Z,101131.69
2023-03-17T17:18:15.532Z,101133.44
2023-03-17T17:20:43.178Z,101145.66
2023-03-17T17:23:18.987Z,101133.44
2023-03-17T17:25:46.396Z,101131.69
2023-03-17T17:28:15.338Z,101140.44
2023-03-17T17:30:45.242Z,101130.78
2023-03-17T17:33:12.391Z,101135.19
2023-03-17T17:35:39.261Z,101133.44
2023-03-17T17:38:15.814Z,101122.94
2023-03-17T17:40:42.417Z,101113.28
2023-03-17T17:43:09.933Z,101116.81
2023-03-17T17:45:36.956Z,101121.19
2023-03-17T17:48:04.066Z,101101.09
2023-03-17T17:50:31.391Z,101109.81
2023-03-17T17:53:04.920Z,101108.06
2023-03-17T17:55:33.745Z,101112.44
2023-03-17T17:58:00.917Z,101121.16
2023-03-17T18:00:27.951Z,101115.06
2023-03-17T18:02:54.660Z,101113.28
2023-03-17T18:05:21.588Z,101128.16
2023-03-17T18:07:48.326Z,101127.28
2023-03-17T18:10:19.543Z,101131.66
2023-03-17T18:12:46.716Z,101120.31
2023-03-17T18:15:13.584Z,101126.41
2023-03-17T18:17:40.689Z,101120.28
2023-03-17T18:20:08.886Z,101115.06
2023-03-17T18:22:36.056Z,101115.06
2023-03-17T18:25:02.668Z,101118.53
2023-03-17T18:27:29.331Z,101117.69
2023-03-17T18:29:57.733Z,101127.28
2023-03-17T18:32:25.974Z,101119.44
2023-03-17T18:34:52.818Z,101110.66
2023-03-17T18:37:19.453Z,101114.19
2023-03-17T18:39:55.506Z,101094.03
2023-03-17T18:42:32.468Z,101103.69
2023-03-17T18:44:59.120Z,101096.66
2023-03-17T18:47:25.820Z,101082.69
2023-03-17T18:49:52.526Z,101082.69
2023-03-17T18:52:19.175Z,101075.69
2023-03-17T18:54:46.064Z,101086.19
2023-03-17T18:57:12.679Z,101074.84
2023-03-17T18:59:39.791Z,101073.97
2023-03-17T19:02:07.259Z,101084.47
2023-03-17T19:04:34.409Z,101080.06
2023-03-17T19:07:01.473Z,101082.69
2023-03-17T19:09:28.233Z,101071.31
2023-03-17T19:11:54.873Z,101073.94
2023-03-17T19:14:22.085Z,101078.31
2023-03-17T19:16:49.230Z,101083.56
2023-03-17T19:19:15.869Z,101072.22
2023-03-17T19:21:42.508Z,101059.09
2023-03-17T19:24:11.815Z,101067.84
2023-03-17T19:26:38.870Z,101067.81
2023-03-17T19:29:06.646Z,101071.34
2023-03-17T19:31:33.276Z,101066.97
2023-03-17T19:33:59.968Z,101066.97
2023-03-17T19:36:26.609Z,101063.44
2023-03-17T19:38:53.300Z,101052.09
2023-03-17T19:41:19.925Z,101052.06
2023-03-17T19:43:46.610Z,101065.19
2023-03-17T19:46:13.307Z,101056.44
2023-03-17T19:48:40.669Z,101052.09
2023-03-17T19:51:08.104Z,101052.94
2023-03-17T19:53:35.156Z,101047.69
2023-03-17T19:56:01.857Z,101062.56
2023-03-17T19:58:28.549Z,101046.81
2023-03-17T20:00:55.412Z,101052.06
2023-03-17T20:03:25.572Z,101046.81
2023-03-17T20:05:53.058Z,101044.19
2023-03-17T20:08:19.952Z,101027.56
2023-03-17T20:10:53.927Z,101032.81
2023-03-17T20:13:22.531Z,101026.69
2023-03-17T20:15:50.196Z,101027.56
2023-03-17T20:18:18.735Z,101011.81
2023-03-17T20:20:49.509Z,101015.28
2023-03-17T20:23:16.890Z,101015.31
2023-03-17T20:25:44.110Z,101018.81
2023-03-17T20:28:11.653Z,101010.94
2023-03-17T20:30:39.601Z,101012.66
2023-03-17T20:33:08.280Z,101010.03
2023-03-17T20:35:35.512Z,101015.28
2023-03-17T20:38:02.778Z,101016.13
2023-03-17T20:40:29.661Z,101004.78
2023-03-17T20:42:56.544Z,101010.88
2023-03-17T20:45:23.237Z,100996.88
2023-03-17T20:47:50.135Z,100986.34
2023-03-17T20:50:16.920Z,100980.22
2023-03-17T20:52:44.028Z,100989.84
2023-03-17T20:55:15.012Z,100976.69
2023-03-17T20:57:43.168Z,100986.31
2023-03-17T21:00:16.320Z,100971.44
2023-03-17T21:02:42.944Z,100972.31
2023-03-17T21:05:23.163Z,100960.91
2023-03-17T21:07:50.659Z,100957.41
2023-03-17T21:10:18.452Z,100940.78
2023-03-17T21:12:45.802Z,100944.28
2023-03-17T21:15:14.023Z,100928.53
2023-03-17T21:17:42.345Z,100936.41
2023-03-17T21:20:11.504Z,100946.03
2023-03-17T21:22:39.960Z,100943.41
2023-03-17T21:25:08.787Z,100944.28
2023-03-17T21:27:39.738Z,100940.75
2023-03-17T21:30:11.178Z,100934.59
2023-03-17T21:32:38.950Z,100936.38
2023-03-17T21:35:06.631Z,100932.84
2023-03-17T21:37:33.461Z,100924.09
2023-03-17T21:40:00.284Z,100926.72
2023-03-17T21:42:27.806Z,100914.47
2023-03-17T21:44:54.486Z,100910.06
2023-03-17T21:47:21.220Z,100903.94
2023-03-17T21:49:47.844Z,100897.81
2023-03-17T21:52:15.129Z,100903.03
2023-03-17T21:54:42.338Z,100891.63
2023-03-17T21:57:09.332Z,100905.63
2023-03-17T21:59:36.298Z,100891.63
2023-03-17T22:02:03.665Z,100882.84
2023-03-17T22:04:30.387Z,100881.09
2023-03-17T22:06:58.862Z,100882.81
2023-03-17T22:09:25.938Z,100872.28
2023-03-17T22:11:52.642Z,100881.03
2023-03-17T22:14:20.747Z,100870.50
2023-03-17T22:16:50.460Z,100867.84
2023-03-17T22:19:19.312Z,100865.22
2023-03-17T22:21:47.285Z,100865.16
2023-03-17T22:24:13.884Z,100864.28
2023-03-17T22:26:40.533Z,100862.50
2023-03-17T22:29:07.189Z,100861.63
2023-03-17T22:31:37.117Z,100852.84
2023-03-17T22:34:04.356Z,100859.81
2023-03-17T22:36:31.302Z,100858.88
2023-03-17T22:38:58.642Z,100858.84
2023-03-17T22:41:28.425Z,100846.59
2023-03-17T22:43:55.391Z,100840.41
2023-03-17T22:46:22.516Z,100850.03
2023-03-17T22:48:49.948Z,100852.63
2023-03-17T22:51:20.046Z,100833.31
2023-03-17T22:53:47.249Z,100829.81
2023-03-17T22:56:15.794Z,100836.78
2023-03-17T22:58:43.380Z,100840.28
2023-03-17T23:01:12.356Z,100836.72
2023-03-17T23:03:39.725Z,100822.72
2023-03-17T23:06:07.845Z,100832.34
2023-03-17T23:08:36.159Z,100831.47
2023-03-17T23:11:07.398Z,100833.19
2023-03-17T23:13:35.351Z,100833.19
2023-03-17T23:16:02.953Z,100836.72
2023-03-17T23:18:29.629Z,100831.47
2023-03-17T23:20:56.533Z,100822.69
2023-03-17T23:23:23.375Z,100799.94
2023-03-17T23:25:50.142Z,100798.16
2023-03-17T23:28:16.798Z,100808.69
2023-03-17T23:30:44.023Z,100805.19
2023-03-17T23:33:10.806Z,100803.41
2023-03-17T23:35:38.111Z,100806.06
2023-03-17T23:38:04.780Z,100811.31
2023-03-17T23:40:32.628Z,100811.31
2023-03-17T23:42:59.867Z,100803.41
2023-03-17T23:45:26.597Z,100796.44
2023-03-17T23:47:55.615Z,100792.91
2023-03-17T23:50:22.274Z,100792.03
2023-03-17T23:52:49.386Z,100791.19
2023-03-17T23:55:16.890Z,100789.41
2023-03-17T23:57:44.336Z,100780.66
